sensor_id;sensor_type;location;lat;lon;timestamp;pressure;altitude;pressure_sealevel;temperature;humidity
54194;BME280;40102;50.906;6.972;2023-07-16T00:01:12;100345.13;;;22.38;60.22
54194;BME280;40102;50.906;6.972;2023-07-16T00:03:38;100344.94;;;22.40;59.58
54194;BME280;40102;50.906;6.972;2023-07-16T00:06:04;100355.34;;;22.44;59.65
54194;BME280;40102;50.906;6.972;2023-07-16T00:08:30;100363.00;;;22.49;59.31
54194;BME280;40102;50.906;6.972;2023-07-16T00:10:55;100360.09;;;22.50;59.33
54194;BME280;40102;50.906;6.972;2023-07-16T00:13:21;100360.63;;;22.46;59.26
54194;BME280;40102;50.906;6.972;2023-07-16T00:15:46;100369.63;;;22.46;59.70
54194;BME280;40102;50.906;6.972;2023-07-16T00:18:12;100376.28;;;22.44;59.46
54194;BME280;40102;50.906;6.972;2023-07-16T00:20:38;100366.06;;;22.38;59.98
54194;BME280;40102;50.906;6.972;2023-07-16T00:23:03;100371.84;;;22.35;60.06
54194;BME280;40102;50.906;6.972;2023-07-16T00:25:28;100371.50;;;22.29;59.77
54194;BME280;40102;50.906;6.972;2023-07-16T00:27:54;100370.16;;;22.34;59.81
54194;BME280;40102;50.906;6.972;2023-07-16T00:30:19;100374.75;;;22.33;59.84
54194;BME280;40102;50.906;6.972;2023-07-16T00:32:45;100385.47;;;22.35;59.75
54194;BME280;40102;50.906;6.972;2023-07-16T00:35:10;100390.06;;;22.34;59.92
54194;BME280;40102;50.906;6.972;2023-07-16T00:37:35;100392.63;;;22.36;59.26
54194;BME280;40102;50.906;6.972;2023-07-16T00:40:01;100395.34;;;22.36;59.09
54194;BME280;40102;50.906;6.972;2023-07-16T00:42:27;100394.00;;;22.40;59.15
54194;BME280;40102;50.906;6.972;2023-07-16T00:44:52;100387.84;;;22.38;59.05
54194;BME280;40102;50.906;6.972;2023-07-16T00:47:17;100385.97;;;22.30;58.93
54194;BME280;40102;50.906;6.972;2023-07-16T00:49:43;100388.69;;;22.22;59.13
54194;BME280;40102;50.906;6.972;2023-07-16T00:52:14;100389.53;;;22.22;59.02
54194;BME280;40102;50.906;6.972;2023-07-16T00:54:41;100394.66;;;22.25;59.43
54194;BME280;40102;50.906;6.972;2023-07-16T00:57:07;100399.44;;;22.23;59.08
54194;BME280;40102;50.906;6.972;2023-07-16T00:59:33;100385.63;;;22.17;59.25
54194;BME280;40102;50.906;6.972;2023-07-16T01:01:58;100385.63;;;22.17;59.27
54194;BME280;40102;50.906;6.972;2023-07-16T01:04:24;100387.16;;;22.19;59.61
54194;BME280;40102;50.906;6.972;2023-07-16T01:06:52;100387.31;;;22.18;59.21
54194;BME280;40102;50.906;6.972;2023-07-16T01:09:20;100388.34;;;22.17;59.33
54194;BME280;40102;50.906;6.972;2023-07-16T01:11:47;100386.81;;;22.14;59.24
54194;BME280;40102;50.906;6.972;2023-07-16T01:14:14;100376.59;;;22.08;59.19
54194;BME280;40102;50.906;6.972;2023-07-16T01:16:41;100387.97;;;22.04;59.66
54194;BME280;40102;50.906;6.972;2023-07-16T01:19:11;100391.19;;;21.99;59.54
54194;BME280;40102;50.906;6.972;2023-07-16T01:24:53;100397.44;;;21.91;60.25
54194;BME280;40102;50.906;6.972;2023-07-16T01:30:23;100399.59;;;21.72;60.74
54194;BME280;40102;50.906;6.972;2023-07-16T01:32:50;100394.31;;;21.70;61.07
54194;BME280;40102;50.906;6.972;2023-07-16T01:35:16;100397.69;;;21.64;61.10
54194;BME280;40102;50.906;6.972;2023-07-16T01:37:42;100400.22;;;21.57;61.21
54194;BME280;40102;50.906;6.972;2023-07-16T01:40:08;100404.31;;;21.61;60.98
54194;BME280;40102;50.906;6.972;2023-07-16T01:42:35;100406.53;;;21.58;61.12
54194;BME280;40102;50.906;6.972;2023-07-16T01:45:00;100406.00;;;21.54;61.43
54194;BME280;40102;50.906;6.972;2023-07-16T01:47:35;100405.97;;;21.46;61.40
54194;BME280;40102;50.906;6.972;2023-07-16T01:50:05;100401.88;;;21.42;61.53
54194;BME280;40102;50.906;6.972;2023-07-16T01:52:30;100414.44;;;21.43;61.54
54194;BME280;40102;50.906;6.972;2023-07-16T01:54:56;100415.31;;;21.44;60.99
54194;BME280;40102;50.906;6.972;2023-07-16T01:57:21;100417.53;;;21.48;60.96
54194;BME280;40102;50.906;6.972;2023-07-16T01:59:47;100418.22;;;21.50;60.97
54194;BME280;40102;50.906;6.972;2023-07-16T02:02:12;100429.31;;;21.57;60.80
54194;BME280;40102;50.906;6.972;2023-07-16T02:04:37;100406.13;;;21.45;60.51
54194;BME280;40102;50.906;6.972;2023-07-16T02:07:03;100433.53;;;21.51;60.78
54194;BME280;40102;50.906;6.972;2023-07-16T02:09:29;100428.00;;;21.35;60.92
54194;BME280;40102;50.906;6.972;2023-07-16T02:11:55;100440.91;;;21.33;61.46
54194;BME280;40102;50.906;6.972;2023-07-16T02:14:20;100444.81;;;21.30;61.17
54194;BME280;40102;50.906;6.972;2023-07-16T02:16:45;100431.63;;;21.18;61.37
54194;BME280;40102;50.906;6.972;2023-07-16T02:19:11;100420.00;;;21.08;61.36
54194;BME280;40102;50.906;6.972;2023-07-16T02:21:37;100426.75;;;21.03;61.35
54194;BME280;40102;50.906;6.972;2023-07-16T02:24:02;100431.03;;;21.06;61.36
54194;BME280;40102;50.906;6.972;2023-07-16T02:26:27;100456.50;;;21.23;61.09
54194;BME280;40102;50.906;6.972;2023-07-16T02:28:53;100443.03;;;21.21;61.04
54194;BME280;40102;50.906;6.972;2023-07-16T02:31:18;100454.78;;;21.22;61.22
54194;BME280;40102;50.906;6.972;2023-07-16T02:33:43;100463.72;;;21.14;61.09
54194;BME280;40102;50.906;6.972;2023-07-16T02:36:09;100473.38;;;21.09;61.57
54194;BME280;40102;50.906;6.972;2023-07-16T02:38:34;100451.88;;;20.97;61.06
54194;BME280;40102;50.906;6.972;2023-07-16T02:41:00;100454.91;;;20.94;61.34
54194;BME280;40102;50.906;6.972;2023-07-16T02:43:25;100460.03;;;20.97;61.17
54194;BME280;40102;50.906;6.972;2023-07-16T02:45:50;100462.13;;;21.03;61.00
54194;BME280;40102;50.906;6.972;2023-07-16T02:48:16;100476.78;;;21.11;61.09
54194;BME280;40102;50.906;6.972;2023-07-16T02:50:41;100481.91;;;21.14;60.86
54194;BME280;40102;50.906;6.972;2023-07-16T02:53:07;100482.53;;;21.08;60.50
54194;BME280;40102;50.906;6.972;2023-07-16T02:55:34;100495.91;;;21.01;60.93
54194;BME280;40102;50.906;6.972;2023-07-16T02:58:00;100493.34;;;20.99;60.92
54194;BME280;40102;50.906;6.972;2023-07-16T03:00:29;100497.56;;;20.94;60.78
54194;BME280;40102;50.906;6.972;2023-07-16T03:02:55;100492.03;;;20.86;61.18
54194;BME280;40102;50.906;6.972;2023-07-16T03:05:20;100504.78;;;20.85;61.08
54194;BME280;40102;50.906;6.972;2023-07-16T03:07:45;100500.19;;;20.86;61.17
54194;BME280;40102;50.906;6.972;2023-07-16T03:10:10;100515.50;;;20.87;60.77
54194;BME280;40102;50.906;6.972;2023-07-16T03:12:36;100508.94;;;20.72;61.26
54194;BME280;40102;50.906;6.972;2023-07-16T03:15:01;100514.59;;;20.78;61.37
54194;BME280;40102;50.906;6.972;2023-07-16T03:17:26;100517.31;;;20.78;61.37
54194;BME280;40102;50.906;6.972;2023-07-16T03:19:52;100524.81;;;20.84;61.22
54194;BME280;40102;50.906;6.972;2023-07-16T03:22:17;100525.69;;;20.85;60.90
54194;BME280;40102;50.906;6.972;2023-07-16T03:24:42;100514.59;;;20.78;60.68
54194;BME280;40102;50.906;6.972;2023-07-16T03:27:08;100522.75;;;20.78;60.89
54194;BME280;40102;50.906;6.972;2023-07-16T03:29:34;100527.19;;;20.61;61.66
54194;BME280;40102;50.906;6.972;2023-07-16T03:31:59;100521.03;;;20.42;62.52
54194;BME280;40102;50.906;6.972;2023-07-16T03:34:25;100535.09;;;20.27;62.86
54194;BME280;40102;50.906;6.972;2023-07-16T03:36:50;100543.06;;;20.11;64.36
54194;BME280;40102;50.906;6.972;2023-07-16T03:39:16;100538.38;;;20.03;63.83
54194;BME280;40102;50.906;6.972;2023-07-16T03:41:41;100538.28;;;19.95;64.07
54194;BME280;40102;50.906;6.972;2023-07-16T03:44:07;100551.69;;;19.97;63.57
54194;BME280;40102;50.906;6.972;2023-07-16T03:46:32;100572.97;;;20.01;64.34
54194;BME280;40102;50.906;6.972;2023-07-16T03:48:57;100555.72;;;19.93;63.69
54194;BME280;40102;50.906;6.972;2023-07-16T03:51:23;100556.16;;;19.88;63.92
54194;BME280;40102;50.906;6.972;2023-07-16T03:53:48;100563.03;;;19.83;63.73
54194;BME280;40102;50.906;6.972;2023-07-16T03:56:13;100551.19;;;19.84;63.83
54194;BME280;40102;50.906;6.972;2023-07-16T03:58:39;100555.00;;;19.91;63.28
54194;BME280;40102;50.906;6.972;2023-07-16T04:01:04;100566.41;;;19.94;63.14
54194;BME280;40102;50.906;6.972;2023-07-16T04:03:30;100578.25;;;20.03;63.05
54194;BME280;40102;50.906;6.972;2023-07-16T04:06:05;100573.22;;;20.08;62.83
54194;BME280;40102;50.906;6.972;2023-07-16T04:08:31;100561.25;;;20.01;62.46
54194;BME280;40102;50.906;6.972;2023-07-16T04:10:57;100569.81;;;20.06;62.29
54194;BME280;40102;50.906;6.972;2023-07-16T04:13:22;100561.34;;;20.09;61.48
54194;BME280;40102;50.906;6.972;2023-07-16T04:15:47;100565.06;;;20.08;61.60
54194;BME280;40102;50.906;6.972;2023-07-16T04:18:13;100570.06;;;20.13;61.14
54194;BME280;40102;50.906;6.972;2023-07-16T04:20:38;100577.91;;;20.16;60.84
54194;BME280;40102;50.906;6.972;2023-07-16T04:23:03;100572.41;;;20.25;60.64
54194;BME280;40102;50.906;6.972;2023-07-16T04:25:29;100591.69;;;20.32;60.42
54194;BME280;40102;50.906;6.972;2023-07-16T04:27:55;100594.94;;;20.35;60.45
54194;BME280;40102;50.906;6.972;2023-07-16T04:30:21;100595.25;;;20.32;60.70
54194;BME280;40102;50.906;6.972;2023-07-16T04:32:47;100598.28;;;20.29;60.30
54194;BME280;40102;50.906;6.972;2023-07-16T04:35:12;100596.72;;;20.27;60.30
54194;BME280;40102;50.906;6.972;2023-07-16T04:37:37;100597.22;;;20.13;60.46
54194;BME280;40102;50.906;6.972;2023-07-16T04:40:03;100608.31;;;20.19;59.95
54194;BME280;40102;50.906;6.972;2023-07-16T04:42:29;100604.59;;;20.20;60.20
54194;BME280;40102;50.906;6.972;2023-07-16T04:44:55;100604.91;;;20.17;59.93
54194;BME280;40102;50.906;6.972;2023-07-16T04:47:20;100619.38;;;20.08;60.13
54194;BME280;40102;50.906;6.972;2023-07-16T04:49:45;100626.81;;;20.06;60.36
54194;BME280;40102;50.906;6.972;2023-07-16T04:52:11;100618.63;;;20.16;59.68
54194;BME280;40102;50.906;6.972;2023-07-16T04:54:36;100620.59;;;20.23;60.10
54194;BME280;40102;50.906;6.972;2023-07-16T04:57:03;100624.44;;;20.30;59.32
54194;BME280;40102;50.906;6.972;2023-07-16T04:59:29;100620.56;;;20.33;59.33
54194;BME280;40102;50.906;6.972;2023-07-16T05:01:56;100608.59;;;20.26;59.57
54194;BME280;40102;50.906;6.972;2023-07-16T05:04:22;100609.13;;;20.29;59.35
54194;BME280;40102;50.906;6.972;2023-07-16T05:06:47;100617.84;;;20.33;59.21
54194;BME280;40102;50.906;6.972;2023-07-16T05:09:12;100643.97;;;20.44;59.15
54194;BME280;40102;50.906;6.972;2023-07-16T05:11:38;100645.69;;;20.45;58.95
54194;BME280;40102;50.906;6.972;2023-07-16T05:14:04;100636.84;;;20.33;58.88
54194;BME280;40102;50.906;6.972;2023-07-16T05:16:29;100645.06;;;20.14;59.29
54194;BME280;40102;50.906;6.972;2023-07-16T05:18:55;100656.94;;;20.13;59.62
54194;BME280;40102;50.906;6.972;2023-07-16T05:21:21;100654.06;;;20.14;59.39
54194;BME280;40102;50.906;6.972;2023-07-16T05:23:46;100652.25;;;20.05;59.61
54194;BME280;40102;50.906;6.972;2023-07-16T05:26:11;100654.97;;;20.05;59.49
54194;BME280;40102;50.906;6.972;2023-07-16T05:28:37;100667.53;;;20.06;59.60
54194;BME280;40102;50.906;6.972;2023-07-16T05:31:02;100660.25;;;20.07;58.73
54194;BME280;40102;50.906;6.972;2023-07-16T05:33:28;100656.53;;;20.08;58.48
54194;BME280;40102;50.906;6.972;2023-07-16T05:35:54;100667.22;;;20.19;58.45
54194;BME280;40102;50.906;6.972;2023-07-16T05:38:19;100667.63;;;20.24;58.01
54194;BME280;40102;50.906;6.972;2023-07-16T05:40:44;100674.31;;;20.29;57.71
54194;BME280;40102;50.906;6.972;2023-07-16T05:43:10;100674.31;;;20.29;57.25
54194;BME280;40102;50.906;6.972;2023-07-16T05:45:36;100680.34;;;20.23;57.15
54194;BME280;40102;50.906;6.972;2023-07-16T05:48:02;100677.34;;;20.26;57.13
54194;BME280;40102;50.906;6.972;2023-07-16T05:50:27;100680.03;;;20.26;56.37
54194;BME280;40102;50.906;6.972;2023-07-16T05:52:52;100678.34;;;20.25;56.03
54194;BME280;40102;50.906;6.972;2023-07-16T05:55:18;100684.47;;;20.27;56.60
54194;BME280;40102;50.906;6.972;2023-07-16T05:57:43;100674.22;;;20.21;56.23
54194;BME280;40102;50.906;6.972;2023-07-16T06:00:09;100692.81;;;20.16;55.96
54194;BME280;40102;50.906;6.972;2023-07-16T06:02:35;100690.94;;;20.17;55.76
54194;BME280;40102;50.906;6.972;2023-07-16T06:05:00;100678.94;;;20.19;55.50
54194;BME280;40102;50.906;6.972;2023-07-16T06:07:25;100685.22;;;20.20;54.81
54194;BME280;40102;50.906;6.972;2023-07-16T06:09:51;100685.94;;;20.12;55.03
54194;BME280;40102;50.906;6.972;2023-07-16T06:12:16;100693.94;;;20.14;54.25
54194;BME280;40102;50.906;6.972;2023-07-16T06:14:42;100690.66;;;20.20;54.00
54194;BME280;40102;50.906;6.972;2023-07-16T06:17:07;100697.22;;;20.17;54.06
54194;BME280;40102;50.906;6.972;2023-07-16T06:19:32;100698.97;;;20.09;54.28
54194;BME280;40102;50.906;6.972;2023-07-16T06:21:58;100701.53;;;20.10;53.74
54194;BME280;40102;50.906;6.972;2023-07-16T06:24:23;100699.81;;;20.09;53.51
54194;BME280;40102;50.906;6.972;2023-07-16T06:26:48;100697.97;;;20.10;53.42
54194;BME280;40102;50.906;6.972;2023-07-16T06:29:14;100696.22;;;20.18;53.58
54194;BME280;40102;50.906;6.972;2023-07-16T06:31:42;100697.50;;;20.24;53.58
54194;BME280;40102;50.906;6.972;2023-07-16T06:34:08;100702.34;;;20.30;52.85
54194;BME280;40102;50.906;6.972;2023-07-16T06:36:33;100703.47;;;20.27;53.15
54194;BME280;40102;50.906;6.972;2023-07-16T06:38:59;100702.19;;;20.31;52.78
54194;BME280;40102;50.906;6.972;2023-07-16T06:41:25;100711.19;;;20.32;52.14
54194;BME280;40102;50.906;6.972;2023-07-16T06:43:50;100710.19;;;20.33;50.85
54194;BME280;40102;50.906;6.972;2023-07-16T06:46:16;100718.06;;;20.26;51.94
54194;BME280;40102;50.906;6.972;2023-07-16T06:48:41;100701.38;;;20.21;51.71
54194;BME280;40102;50.906;6.972;2023-07-16T06:51:06;100699.91;;;20.27;51.73
54194;BME280;40102;50.906;6.972;2023-07-16T06:53:32;100704.50;;;20.26;51.88
54194;BME280;40102;50.906;6.972;2023-07-16T06:55:58;100707.75;;;20.30;51.85
54194;BME280;40102;50.906;6.972;2023-07-16T06:58:30;100701.88;;;20.34;51.07
54194;BME280;40102;50.906;6.972;2023-07-16T07:00:56;100710.34;;;20.31;50.54
54194;BME280;40102;50.906;6.972;2023-07-16T07:03:21;100708.31;;;20.33;50.19
54194;BME280;40102;50.906;6.972;2023-07-16T07:05:46;100702.03;;;20.33;50.34
54194;BME280;40102;50.906;6.972;2023-07-16T07:08:12;100704.03;;;20.31;49.79
54194;BME280;40102;50.906;6.972;2023-07-16T07:10:39;100728.03;;;20.35;50.13
54194;BME280;40102;50.906;6.972;2023-07-16T07:13:06;100717.78;;;20.39;49.31
54194;BME280;40102;50.906;6.972;2023-07-16T07:15:31;100698.88;;;20.37;49.92
54194;BME280;40102;50.906;6.972;2023-07-16T07:17:56;100718.03;;;20.46;49.71
54194;BME280;40102;50.906;6.972;2023-07-16T07:20:22;100724.59;;;20.53;49.75
54194;BME280;40102;50.906;6.972;2023-07-16T07:22:47;100722.56;;;20.55;49.00
54194;BME280;40102;50.906;6.972;2023-07-16T07:25:12;100730.44;;;20.58;49.21
54194;BME280;40102;50.906;6.972;2023-07-16T07:27:38;100727.41;;;20.61;48.67
54194;BME280;40102;50.906;6.972;2023-07-16T07:30:03;100727.56;;;20.59;48.20
54194;BME280;40102;50.906;6.972;2023-07-16T07:32:29;100709.75;;;20.37;47.03
54194;BME280;40102;50.906;6.972;2023-07-16T07:34:54;100703.78;;;20.24;47.57
54194;BME280;40102;50.906;6.972;2023-07-16T07:37:20;100709.88;;;20.36;47.41
54194;BME280;40102;50.906;6.972;2023-07-16T07:39:45;100719.63;;;20.39;47.38
54194;BME280;40102;50.906;6.972;2023-07-16T07:42:15;100713.47;;;20.46;47.58
54194;BME280;40102;50.906;6.972;2023-07-16T07:44:40;100720.19;;;20.42;47.01
54194;BME280;40102;50.906;6.972;2023-07-16T07:47:05;100714.75;;;20.42;46.99
54194;BME280;40102;50.906;6.972;2023-07-16T07:49:30;100709.72;;;20.47;47.44
54194;BME280;40102;50.906;6.972;2023-07-16T07:51:56;100708.56;;;20.50;47.37
54194;BME280;40102;50.906;6.972;2023-07-16T07:54:21;100713.13;;;20.59;47.71
54194;BME280;40102;50.906;6.972;2023-07-16T07:56:46;100715.53;;;20.62;46.23
54194;BME280;40102;50.906;6.972;2023-07-16T07:59:12;100714.69;;;20.61;46.46
54194;BME280;40102;50.906;6.972;2023-07-16T08:01:37;100709.53;;;20.58;46.14
54194;BME280;40102;50.906;6.972;2023-07-16T08:04:03;100720.38;;;20.68;44.74
54194;BME280;40102;50.906;6.972;2023-07-16T08:06:28;100705.97;;;20.58;45.62
54194;BME280;40102;50.906;6.972;2023-07-16T08:08:53;100723.69;;;20.62;44.88
54194;BME280;40102;50.906;6.972;2023-07-16T08:11:19;100718.09;;;20.63;44.63
54194;BME280;40102;50.906;6.972;2023-07-16T08:13:44;100715.22;;;20.65;44.19
54194;BME280;40102;50.906;6.972;2023-07-16T08:16:09;100729.38;;;20.68;45.09
54194;BME280;40102;50.906;6.972;2023-07-16T08:18:35;100725.81;;;20.68;44.63
54194;BME280;40102;50.906;6.972;2023-07-16T08:21:00;100719.91;;;20.73;44.57
54194;BME280;40102;50.906;6.972;2023-07-16T08:23:26;100742.22;;;20.76;44.33
54194;BME280;40102;50.906;6.972;2023-07-16T08:25:51;100731.03;;;20.79;43.96
54194;BME280;40102;50.906;6.972;2023-07-16T08:28:16;100733.13;;;20.85;43.74
54194;BME280;40102;50.906;6.972;2023-07-16T08:30:42;100723.75;;;20.80;43.04
54194;BME280;40102;50.906;6.972;2023-07-16T08:33:07;100717.59;;;20.78;43.14
54194;BME280;40102;50.906;6.972;2023-07-16T08:35:33;100728.13;;;20.81;43.61
54194;BME280;40102;50.906;6.972;2023-07-16T08:37:58;100730.09;;;20.88;43.53
54194;BME280;40102;50.906;6.972;2023-07-16T08:40:23;100727.38;;;20.88;44.25
54194;BME280;40102;50.906;6.972;2023-07-16T08:42:49;100741.38;;;20.93;43.18
54194;BME280;40102;50.906;6.972;2023-07-16T08:45:15;100717.91;;;20.92;43.61
54194;BME280;40102;50.906;6.972;2023-07-16T08:47:44;100730.59;;;21.01;44.08
54194;BME280;40102;50.906;6.972;2023-07-16T08:50:10;100741.41;;;21.11;44.21
54194;BME280;40102;50.906;6.972;2023-07-16T08:52:37;100721.22;;;21.14;43.36
54194;BME280;40102;50.906;6.972;2023-07-16T08:55:02;100724.25;;;21.11;43.38
54194;BME280;40102;50.906;6.972;2023-07-16T08:57:28;100733.97;;;21.13;43.86
54194;BME280;40102;50.906;6.972;2023-07-16T08:59:55;100731.94;;;21.15;43.73
54194;BME280;40102;50.906;6.972;2023-07-16T09:02:21;100729.34;;;21.23;43.17
54194;BME280;40102;50.906;6.972;2023-07-16T09:04:47;100728.38;;;21.15;43.73
54194;BME280;40102;50.906;6.972;2023-07-16T09:07:13;100736.69;;;21.13;43.69
54194;BME280;40102;50.906;6.972;2023-07-16T09:09:38;100742.66;;;21.17;43.65
54194;BME280;40102;50.906;6.972;2023-07-16T09:12:04;100742.22;;;21.21;43.46
54194;BME280;40102;50.906;6.972;2023-07-16T09:14:30;100738.44;;;21.32;42.40
54194;BME280;40102;50.906;6.972;2023-07-16T09:16:55;100754.53;;;21.25;42.54
54194;BME280;40102;50.906;6.972;2023-07-16T09:19:21;100740.94;;;21.25;42.73
54194;BME280;40102;50.906;6.972;2023-07-16T09:21:50;100754.69;;;21.24;42.90
54194;BME280;40102;50.906;6.972;2023-07-16T09:24:16;100758.50;;;21.31;42.68
54194;BME280;40102;50.906;6.972;2023-07-16T09:26:49;100737.66;;;21.22;43.06
54194;BME280;40102;50.906;6.972;2023-07-16T09:29:15;100752.06;;;21.32;43.11
54194;BME280;40102;50.906;6.972;2023-07-16T09:34:18;100746.69;;;21.40;43.41
54194;BME280;40102;50.906;6.972;2023-07-16T09:36:47;100740.09;;;21.43;42.73
54194;BME280;40102;50.906;6.972;2023-07-16T09:39:13;100739.63;;;21.47;43.05
54194;BME280;40102;50.906;6.972;2023-07-16T09:41:39;100735.28;;;21.54;43.21
54194;BME280;40102;50.906;6.972;2023-07-16T09:44:05;100752.28;;;21.56;43.36
54194;BME280;40102;50.906;6.972;2023-07-16T09:46:31;100738.53;;;21.58;42.93
54194;BME280;40102;50.906;6.972;2023-07-16T09:48:56;100731.47;;;21.65;43.05
54194;BME280;40102;50.906;6.972;2023-07-16T09:51:22;100745.59;;;21.69;42.55
54194;BME280;40102;50.906;6.972;2023-07-16T09:53:50;100740.72;;;21.72;41.65
54194;BME280;40102;50.906;6.972;2023-07-16T09:56:18;100744.59;;;21.70;41.91
54194;BME280;40102;50.906;6.972;2023-07-16T09:58:45;100747.47;;;21.68;42.81
54194;BME280;40102;50.906;6.972;2023-07-16T10:01:11;100752.91;;;21.68;42.49
54194;BME280;40102;50.906;6.972;2023-07-16T10:03:36;100750.34;;;21.66;42.95
54194;BME280;40102;50.906;6.972;2023-07-16T10:06:08;100745.44;;;21.70;43.41
54194;BME280;40102;50.906;6.972;2023-07-16T10:08:36;100743.75;;;21.69;43.35
54194;BME280;40102;50.906;6.972;2023-07-16T10:11:01;100746.78;;;21.66;42.88
54194;BME280;40102;50.906;6.972;2023-07-16T10:13:27;100746.16;;;21.72;43.25
54194;BME280;40102;50.906;6.972;2023-07-16T10:15:57;100744.34;;;21.81;42.72
54194;BME280;40102;50.906;6.972;2023-07-16T10:18:24;100751.34;;;21.83;43.18
54194;BME280;40102;50.906;6.972;2023-07-16T10:20:51;100742.00;;;21.86;42.16
54194;BME280;40102;50.906;6.972;2023-07-16T10:23:18;100742.25;;;21.92;42.92
54194;BME280;40102;50.906;6.972;2023-07-16T10:26:00;100744.50;;;21.97;42.74
54194;BME280;40102;50.906;6.972;2023-07-16T10:28:26;100760.59;;;22.08;41.95
54194;BME280;40102;50.906;6.972;2023-07-16T10:30:52;100765.25;;;22.16;41.97
54194;BME280;40102;50.906;6.972;2023-07-16T10:33:17;100752.66;;;22.15;42.03
54194;BME280;40102;50.906;6.972;2023-07-16T10:35:45;100750.56;;;22.09;41.40
54194;BME280;40102;50.906;6.972;2023-07-16T10:38:11;100751.66;;;21.98;41.49
54194;BME280;40102;50.906;6.972;2023-07-16T10:40:40;100747.84;;;22.09;41.30
54194;BME280;40102;50.906;6.972;2023-07-16T10:43:06;100754.53;;;22.14;41.73
54194;BME280;40102;50.906;6.972;2023-07-16T10:45:31;100763.78;;;22.21;41.82
54194;BME280;40102;50.906;6.972;2023-07-16T10:47:57;100743.47;;;22.16;41.74
54194;BME280;40102;50.906;6.972;2023-07-16T10:50:23;100759.72;;;22.25;40.44
54194;BME280;40102;50.906;6.972;2023-07-16T10:52:52;100765.22;;;22.34;41.24
54194;BME280;40102;50.906;6.972;2023-07-16T10:55:19;100771.94;;;22.21;40.21
54194;BME280;40102;50.906;6.972;2023-07-16T10:57:47;100744.91;;;22.02;40.27
54194;BME280;40102;50.906;6.972;2023-07-16T11:00:15;100776.00;;;22.17;41.05
54194;BME280;40102;50.906;6.972;2023-07-16T11:02:41;100759.34;;;22.20;41.12
54194;BME280;40102;50.906;6.972;2023-07-16T11:05:12;100776.13;;;22.34;40.69
54194;BME280;40102;50.906;6.972;2023-07-16T11:07:42;100775.16;;;22.43;40.33
54194;BME280;40102;50.906;6.972;2023-07-16T11:10:08;100779.91;;;22.41;40.35
54194;BME280;40102;50.906;6.972;2023-07-16T11:12:34;100771.03;;;22.39;40.54
54194;BME280;40102;50.906;6.972;2023-07-16T11:14:59;100779.16;;;22.30;40.29
54194;BME280;40102;50.906;6.972;2023-07-16T11:17:25;100760.34;;;22.19;39.82
54194;BME280;40102;50.906;6.972;2023-07-16T11:19:52;100756.28;;;22.23;40.57
54194;BME280;40102;50.906;6.972;2023-07-16T11:22:18;100773.72;;;22.30;40.22
54194;BME280;40102;50.906;6.972;2023-07-16T11:24:48;100758.84;;;22.25;40.39
54194;BME280;40102;50.906;6.972;2023-07-16T11:27:21;100771.84;;;22.31;40.10
54194;BME280;40102;50.906;6.972;2023-07-16T11:29:52;100766.38;;;22.31;40.02
54194;BME280;40102;50.906;6.972;2023-07-16T11:32:33;100768.63;;;22.36;40.42
54194;BME280;40102;50.906;6.972;2023-07-16T11:35:01;100766.75;;;22.36;40.42
54194;BME280;40102;50.906;6.972;2023-07-16T11:37:28;100757.91;;;22.34;40.34
54194;BME280;40102;50.906;6.972;2023-07-16T11:40:02;100759.13;;;22.40;39.57
54194;BME280;40102;50.906;6.972;2023-07-16T11:42:33;100772.47;;;22.51;39.60
54194;BME280;40102;50.906;6.972;2023-07-16T11:45:00;100751.16;;;22.46;39.88
54194;BME280;40102;50.906;6.972;2023-07-16T11:47:26;100770.13;;;22.56;39.88
54194;BME280;40102;50.906;6.972;2023-07-16T11:49:52;100784.44;;;22.58;39.75
54194;BME280;40102;50.906;6.972;2023-07-16T11:52:21;100776.00;;;22.69;39.08
54194;BME280;40102;50.906;6.972;2023-07-16T11:54:51;100764.88;;;22.62;39.65
54194;BME280;40102;50.906;6.972;2023-07-16T11:57:17;100762.84;;;22.65;39.28
54194;BME280;40102;50.906;6.972;2023-07-16T11:59:42;100785.22;;;22.76;39.35
54194;BME280;40102;50.906;6.972;2023-07-16T12:02:07;100789.06;;;22.83;38.47
54194;BME280;40102;50.906;6.972;2023-07-16T12:04:33;100774.16;;;22.78;38.95
54194;BME280;40102;50.906;6.972;2023-07-16T12:06:58;100787.25;;;22.74;39.34
54194;BME280;40102;50.906;6.972;2023-07-16T12:09:24;100784.94;;;22.79;38.41
54194;BME280;40102;50.906;6.972;2023-07-16T12:11:49;100775.41;;;22.83;39.05
54194;BME280;40102;50.906;6.972;2023-07-16T12:14:15;100767.56;;;22.80;39.39
54194;BME280;40102;50.906;6.972;2023-07-16T12:16:40;100771.34;;;22.87;38.53
54194;BME280;40102;50.906;6.972;2023-07-16T12:19:08;100774.03;;;22.79;38.64
54194;BME280;40102;50.906;6.972;2023-07-16T12:21:33;100765.97;;;22.78;39.15
54194;BME280;40102;50.906;6.972;2023-07-16T12:23:59;100766.47;;;22.73;39.29
54194;BME280;40102;50.906;6.972;2023-07-16T12:26:24;100769.44;;;22.80;39.24
54194;BME280;40102;50.906;6.972;2023-07-16T12:28:49;100760.41;;;22.79;39.28
54194;BME280;40102;50.906;6.972;2023-07-16T12:31:15;100770.28;;;22.80;39.54
54194;BME280;40102;50.906;6.972;2023-07-16T12:33:41;100758.88;;;22.85;39.49
54194;BME280;40102;50.906;6.972;2023-07-16T12:36:07;100777.84;;;22.94;38.77
54194;BME280;40102;50.906;6.972;2023-07-16T12:38:32;100781.59;;;22.93;38.94
54194;BME280;40102;50.906;6.972;2023-07-16T12:40:57;100782.97;;;22.98;39.14
54194;BME280;40102;50.906;6.972;2023-07-16T12:43:23;100783.31;;;22.94;38.79
54194;BME280;40102;50.906;6.972;2023-07-16T12:45:48;100782.78;;;22.91;39.26
54194;BME280;40102;50.906;6.972;2023-07-16T12:48:14;100783.97;;;22.88;39.71
54194;BME280;40102;50.906;6.972;2023-07-16T12:50:39;100798.13;;;22.92;39.32
54194;BME280;40102;50.906;6.972;2023-07-16T12:53:05;100794.75;;;22.98;38.99